Главная страница
METAR-TAF:

METAR-TAF

Аэропорты :

Пьештяни

Пьештяны, Словакия

широта: 48-37-30N, долгота: 017-49-43E, высота над уровнем моря: 163 м

Текущие метеонаблюдения

Эта сводка был подготовлена 18 минут назад, в 00:30 UTC
Ветер 5 Узел от северный
Температура 22°C
Влажность 65%
Давление 1016 hPa
Видимость 10 км и более

METAR: LZPP 210030Z AUTO 01005KT 9999 NCD 22/15 Q1016

Время: 02:48 (00:48 UTC)

Прогноз

Эта сводка был подготовлена 7 часа и 48 минут назад, в 17:00 UTC
Прогноз действительный с 20-го 18 UTC до 21-го 03 UTC
Ветер 4 Узел от южный-юго-западный
Видимость 10 км и более
Нет облачности ниже 1500 м, и нет кучево-дождевой облачности

TAF: LZPP 201700Z 2018/2103 21004KT CAVOK

Метеонаблюдения и прогнозы для более 4000 аэропортов (сводки METAR и TAF).

Имеющиеся станции представлены на карте желтыми и красными точками.

Чтобы увидеть название станции, наведите на нее мышь.

Затем щелкните, чтобы увидеть метеонаблюдения и метеопрогнозы.

Управление картой: чтобы увеличить масштаб, щелкните зеленые кнопки с черным крестиком; чтобы уменьшить масштаб, щелкните зеленую кнопку с тире; для просмотра соседних карт щелкайте зеленые стрелки.


METAR-TAF: